Time;durP1;ratioP1;P1;durP2;ratioP2;P2;SDS_P1;SDS_P2;PMS_P1;PMS_P2;Temp;Humidity;BMP_temperature;BMP_pressure;BME280_temperature;BME280_humidity;BME280_pressure;Samples;Min_cycle;Max_cycle;Signal;HPM_P1;HPM_P2
2021/06/25 00:01:26;;;;;;;19.20;6.45;;;;;;;19.01;84.09;98400.95;2268200;78;21007;-68
2021/06/25 00:04:26;;;;;;;18.75;5.90;;;;;;;19.01;83.96;98416.39;2268428;78;20960;-70
2021/06/25 00:07:27;;;;;;;20.30;5.60;;;;;;;19.09;83.72;98472.74;2268824;78;20987;-69
2021/06/25 00:10:27;;;;;;;21.48;5.85;;;;;;;19.18;83.23;98507.70;2268515;78;20976;-68
2021/06/25 00:13:28;;;;;;;19.77;5.65;;;;;;;19.23;83.08;98539.13;2268567;78;20948;-69
2021/06/25 00:16:28;;;;;;;22.60;7.60;;;;;;;19.27;82.97;98559.10;2268593;78;21423;-69
2021/06/25 00:19:29;;;;;;;24.07;8.63;;;;;;;19.26;83.06;98631.87;2268410;78;21419;-65
2021/06/25 00:22:29;;;;;;;20.37;7.33;;;;;;;19.20;83.11;98686.99;2268477;78;21494;-65
2021/06/25 00:25:30;;;;;;;18.90;5.60;;;;;;;19.06;83.81;98658.28;2268417;78;21024;-69
2021/06/25 00:28:31;;;;;;;19.48;5.80;;;;;;;18.90;83.83;98669.09;2268630;78;20967;-66
2021/06/25 00:31:31;;;;;;;20.08;6.03;;;;;;;18.88;84.21;98692.33;2268503;78;21015;-69
2021/06/25 00:34:32;;;;;;;20.72;6.20;;;;;;;18.88;84.13;98705.62;2198852;78;21000;-69
2021/06/25 00:37:33;;;;;;;19.85;6.20;;;;;;;18.81;84.57;98709.33;2236797;79;21004;-65
2021/06/25 00:40:33;;;;;;;18.55;5.53;;;;;;;18.77;84.54;98713.77;2236830;80;21524;-69
2021/06/25 00:43:34;;;;;;;22.45;6.80;;;;;;;18.76;84.79;98703.64;2236851;80;21477;-69
2021/06/25 00:46:35;;;;;;;21.23;6.35;;;;;;;18.78;84.71;98722.09;2236477;79;21004;-69
2021/06/25 00:49:35;;;;;;;19.87;5.90;;;;;;;18.80;84.78;98724.09;2236839;80;20963;-70
2021/06/25 00:52:36;;;;;;;21.07;6.40;;;;;;;18.80;84.85;98728.90;2237093;79;20983;-68
2021/06/25 00:58:38;;;;;;;20.52;6.78;;;;;;;18.82;84.69;98786.73;2236814;80;21569;-70
2021/06/25 01:01:39;;;;;;;23.62;6.90;;;;;;;18.82;84.69;98786.73;2236977;80;20948;-67
2021/06/25 01:04:39;;;;;;;22.62;7.08;;;;;;;18.87;85.04;98784.48;2237002;79;20955;-70
2021/06/25 01:07:40;;;;;;;22.37;8.48;;;;;;;18.86;84.89;98801.87;2236986;80;20992;-63
2021/06/25 01:10:40;;;;;;;31.20;18.23;;;;;;;18.89;84.93;98808.24;2236938;80;20991;-68
2021/06/25 01:13:41;;;;;;;23.07;8.20;;;;;;;18.94;84.85;98808.66;2236996;79;21489;-66
2021/06/25 01:16:41;;;;;;;22.10;9.65;;;;;;;19.02;84.69;98814.08;2236982;80;21423;-70
2021/06/25 01:19:42;;;;;;;26.60;11.35;;;;;;;19.09;84.45;98811.64;2236822;80;20928;-70
2021/06/25 01:22:42;;;;;;;24.98;11.38;;;;;;;19.16;84.29;98783.98;2236845;79;20998;-70
2021/06/25 01:25:42;;;;;;;25.85;10.65;;;;;;;19.20;83.96;98797.32;2237223;80;20990;-70
2021/06/25 01:28:43;;;;;;;25.10;8.10;;;;;;;19.21;84.05;98829.08;2236874;80;20979;-70
2021/06/25 01:31:43;;;;;;;25.70;9.83;;;;;;;19.22;83.88;98833.89;2236892;80;20948;-70
2021/06/25 01:34:44;;;;;;;26.70;12.73;;;;;;;19.20;83.85;98780.86;2268059;78;21431;-65
2021/06/25 01:37:44;;;;;;;20.62;7.92;;;;;;;19.24;83.92;98788.53;2269713;78;20929;-67
2021/06/25 01:40:45;;;;;;;20.08;6.30;;;;;;;19.24;83.88;98793.38;2269650;78;20967;-67
2021/06/25 01:43:45;;;;;;;23.57;6.60;;;;;;;19.09;84.26;98793.03;2269918;78;20929;-68
2021/06/25 01:46:46;;;;;;;21.30;7.05;;;;;;;19.00;84.33;98809.88;2269370;78;21036;-65
2021/06/25 01:49:46;;;;;;;22.25;7.42;;;;;;;19.04;84.43;98830.70;2269741;78;21054;-67
2021/06/25 01:52:47;;;;;;;19.52;6.28;;;;;;;19.07;84.44;98841.53;2269849;78;20984;-70
2021/06/25 01:55:50;;;;;;;22.25;6.12;;;;;;;19.06;85.04;98876.23;2269744;78;21523;-67
2021/06/25 01:58:50;;;;;;;22.48;6.97;;;;;;;18.83;86.16;98915.09;2247385;78;20973;-70
2021/06/25 02:01:51;;;;;;;22.10;6.55;;;;;;;18.63;86.79;98916.48;2269765;78;21503;-68
2021/06/25 02:04:51;;;;;;;19.87;6.28;;;;;;;18.59;86.44;98923.06;2269726;78;20972;-67
2021/06/25 02:07:51;;;;;;;21.30;6.35;;;;;;;18.64;86.21;98928.77;2269870;78;20972;-66
2021/06/25 02:10:52;;;;;;;22.30;7.60;;;;;;;18.75;85.89;98900.36;2269953;78;20968;-67
2021/06/25 02:13:52;;;;;;;21.93;6.97;;;;;;;18.85;85.71;98873.29;2269763;78;21055;-68
2021/06/25 02:16:53;;;;;;;21.57;7.20;;;;;;;18.89;85.33;98879.16;2269892;78;21019;-67
2021/06/25 02:19:53;;;;;;;22.98;7.08;;;;;;;18.92;85.56;98888.17;2269787;78;21581;-62
2021/06/25 02:22:54;;;;;;;21.82;7.45;;;;;;;18.90;85.89;98871.05;2269506;78;20984;-62
2021/06/25 02:25:54;;;;;;;23.35;7.40;;;;;;;18.76;87.23;98875.00;2269749;78;20971;-67
2021/06/25 02:28:55;;;;;;;22.60;8.05;;;;;;;18.58;87.69;98884.19;2269681;78;20971;-67
2021/06/25 02:31:55;;;;;;;22.52;7.75;;;;;;;18.46;87.42;98852.98;2269934;78;20972;-65
2021/06/25 02:34:56;;;;;;;24.23;8.00;;;;;;;18.47;87.85;98885.68;2259590;78;20996;-69
2021/06/25 02:37:56;;;;;;;22.37;7.92;;;;;;;18.41;87.88;98938.87;2253799;79;20949;-70
2021/06/25 02:40:57;;;;;;;24.15;7.58;;;;;;;18.47;87.66;98939.63;2253765;79;20949;-67
2021/06/25 02:43:57;;;;;;;21.55;7.72;;;;;;;18.50;88.09;98943.34;2253593;79;21519;-70
2021/06/25 02:46:57;;;;;;;21.10;7.22;;;;;;;18.48;88.21;98935.16;2253213;79;21055;-69
2021/06/25 02:49:58;;;;;;;20.55;7.10;;;;;;;18.51;88.09;98900.35;2253627;79;20964;-68
2021/06/25 02:52:58;;;;;;;21.60;7.47;;;;;;;18.48;87.26;98816.99;2253937;79;21033;-66
2021/06/25 02:55:59;;;;;;;24.65;7.62;;;;;;;18.54;86.80;98743.37;2254135;79;20964;-64
2021/06/25 02:58:59;;;;;;;24.02;8.15;;;;;;;18.64;86.56;98740.67;2253939;79;21004;-64
2021/06/25 03:02:00;;;;;;;23.47;7.92;;;;;;;18.83;86.56;98760.98;2253857;79;20997;-67
2021/06/25 03:05:00;;;;;;;20.85;7.12;;;;;;;18.94;85.78;98728.10;2254141;78;21515;-69
2021/06/25 03:08:01;;;;;;;25.27;8.55;;;;;;;18.93;85.53;98713.96;2254086;79;20953;-70
2021/06/25 03:11:01;;;;;;;26.37;9.60;;;;;;;18.92;85.48;98714.11;2253757;79;20984;-69
2021/06/25 03:14:01;;;;;;;25.17;9.48;;;;;;;18.89;85.67;98730.36;2253875;79;21570;-68
2021/06/25 03:17:02;;;;;;;26.82;9.15;;;;;;;18.91;85.53;98754.48;2253511;79;21001;-70
2021/06/25 03:20:03;;;;;;;25.00;10.55;;;;;;;18.76;85.85;98789.13;2253765;79;21016;-68
2021/06/25 03:23:03;;;;;;;27.65;10.28;;;;;;;18.67;86.21;98796.98;2254020;78;20965;-67
2021/06/25 03:26:04;;;;;;;21.27;8.45;;;;;;;18.67;86.10;98796.98;2254268;78;20953;-70
2021/06/25 03:29:04;;;;;;;25.17;8.48;;;;;;;18.75;85.93;98790.10;2254224;78;20939;-68
2021/06/25 03:32:05;;;;;;;22.40;8.18;;;;;;;18.86;85.78;98786.81;2253957;79;20985;-67
2021/06/25 03:35:05;;;;;;;22.32;7.92;;;;;;;18.90;85.41;98770.06;2253869;78;21000;-68
2021/06/25 03:38:06;;;;;;;21.75;7.08;;;;;;;18.95;85.15;98773.13;2253849;79;21036;-66
2021/06/25 03:41:06;;;;;;;22.42;7.97;;;;;;;19.01;84.85;98753.09;2253473;79;21606;-65
2021/06/25 03:44:06;;;;;;;25.88;11.93;;;;;;;19.04;84.58;98747.48;2253913;79;20965;-69
2021/06/25 03:47:08;;;;;;;31.15;18.52;;;;;;;19.10;84.54;98744.20;2253908;79;20965;-69
2021/06/25 03:50:08;;;;;;;27.80;13.90;;;;;;;19.19;84.38;98738.01;2254016;79;21008;-67
2021/06/25 03:53:09;;;;;;;22.37;8.00;;;;;;;19.20;83.92;98745.48;2253911;79;20981;-67
2021/06/25 03:56:10;;;;;;;18.32;6.45;;;;;;;19.21;83.98;98748.48;2253782;79;21408;-65
2021/06/25 03:59:10;;;;;;;22.98;7.42;;;;;;;19.24;83.80;98746.00;2253926;79;20985;-69
2021/06/25 04:02:12;;;;;;;33.73;11.33;;;;;;;19.36;83.87;98756.77;2254109;79;21503;-67
2021/06/25 04:05:12;;;;;;;21.25;6.35;;;;;;;19.55;83.48;98774.39;2254056;78;21684;-69
2021/06/25 04:08:13;;;;;;;22.67;10.50;;;;;;;19.59;82.16;98778.42;2253876;79;21031;-66
2021/06/25 04:11:13;;;;;;;27.82;15.23;;;;;;;19.61;82.70;98780.45;2253753;78;20976;-68
2021/06/25 04:14:14;;;;;;;20.08;5.47;;;;;;;19.73;82.24;98799.16;2253887;78;20988;-66
2021/06/25 04:17:15;;;;;;;18.90;5.17;;;;;;;19.72;81.55;98805.97;2253901;79;21495;-68
2021/06/25 04:20:17;;;;;;;22.22;5.37;;;;;;;19.60;81.77;98798.72;2253725;79;20957;-68
2021/06/25 04:23:17;;;;;;;16.77;5.05;;;;;;;19.53;82.52;98805.13;2224972;79;20981;-69
2021/06/25 04:26:18;;;;;;;15.63;5.08;;;;;;;19.63;81.65;98798.92;2254036;79;21000;-69
2021/06/25 04:29:18;;;;;;;17.17;5.00;;;;;;;19.62;81.81;98806.05;2253732;79;21063;-69
2021/06/25 04:32:20;;;;;;;18.02;5.60;;;;;;;19.52;81.88;98806.62;2253986;79;20973;-64
2021/06/25 04:35:21;;;;;;;23.75;5.80;;;;;;;19.48;81.73;98806.09;2253570;79;21017;-67
2021/06/25 04:38:22;;;;;;;20.70;5.60;;;;;;;19.64;82.35;98810.73;2253403;79;21514;-68
2021/06/25 04:41:23;;;;;;;21.05;5.75;;;;;;;19.62;81.64;98804.72;2253996;79;21024;-69
2021/06/25 04:44:23;;;;;;;18.05;5.58;;;;;;;19.68;81.73;98813.44;2253740;78;21055;-66
2021/06/25 04:47:23;;;;;;;19.23;5.80;;;;;;;19.70;81.30;98818.61;2253837;79;20984;-68
2021/06/25 04:50:24;;;;;;;19.77;6.17;;;;;;;19.74;81.55;98824.80;2253748;79;20957;-69
2021/06/25 04:53:25;;;;;;;18.87;5.70;;;;;;;19.86;81.79;98829.41;2253519;79;21004;-69
2021/06/25 04:56:26;;;;;;;21.10;6.05;;;;;;;20.17;81.04;98822.35;2254010;79;21474;-68
2021/06/25 04:59:27;;;;;;;21.50;6.75;;;;;;;20.45;80.48;98816.05;2253856;79;21022;-67
2021/06/25 05:02:27;;;;;;;21.30;6.80;;;;;;;20.59;80.37;98814.13;2253607;78;21023;-69
2021/06/25 05:05:28;;;;;;;21.23;6.45;;;;;;;20.76;80.19;98813.75;2254127;79;21008;-68
2021/06/25 05:08:28;;;;;;;20.80;6.95;;;;;;;20.79;79.44;98820.09;2253948;79;21000;-70
2021/06/25 05:11:29;;;;;;;23.12;6.75;;;;;;;20.92;79.78;98816.98;2253811;79;20941;-68
2021/06/25 05:14:29;;;;;;;22.37;7.05;;;;;;;21.05;78.45;98810.70;2253712;79;20976;-69
2021/06/25 05:17:30;;;;;;;22.32;6.90;;;;;;;21.18;78.72;98812.91;2253694;79;21508;-66
2021/06/25 05:20:30;;;;;;;23.10;7.12;;;;;;;21.38;78.63;98815.30;2253954;79;20961;-68
2021/06/25 05:23:31;;;;;;;23.62;7.20;;;;;;;21.72;78.22;98809.89;2253980;79;20969;-68
2021/06/25 05:26:31;;;;;;;22.17;7.15;;;;;;;21.96;78.10;98807.70;2254155;78;20953;-69
2021/06/25 05:29:32;;;;;;;20.27;6.67;;;;;;;22.22;76.28;98800.52;2254111;78;20945;-70
2021/06/25 05:32:33;;;;;;;25.82;8.38;;;;;;;22.21;75.39;98801.03;2253719;79;21395;-70
2021/06/25 05:35:34;;;;;;;19.42;6.80;;;;;;;22.04;76.92;98793.53;2263636;78;21058;-69
2021/06/25 05:38:34;;;;;;;22.07;7.00;;;;;;;22.10;76.31;98795.52;2269923;78;20996;-65
2021/06/25 05:41:35;;;;;;;20.63;7.43;;;;;;;22.26;76.37;98797.84;2270080;78;21526;-65
2021/06/25 05:44:35;;;;;;;22.93;8.40;;;;;;;22.55;75.68;98803.98;2270173;78;20928;-64
2021/06/25 05:47:36;;;;;;;24.73;8.90;;;;;;;22.65;74.70;98795.77;2269996;78;20964;-66
2021/06/25 05:50:37;;;;;;;21.47;8.83;;;;;;;22.71;74.07;98788.91;2269944;78;20944;-65
2021/06/25 05:53:38;;;;;;;23.75;9.88;;;;;;;22.75;72.92;98783.03;2270072;78;20968;-68
2021/06/25 05:56:39;;;;;;;25.27;10.27;;;;;;;22.78;74.29;98791.22;2269788;78;21047;-68
2021/06/25 05:59:40;;;;;;;25.03;9.57;;;;;;;23.16;72.77;98788.75;2269774;78;21024;-68
2021/06/25 06:02:40;;;;;;;23.93;10.23;;;;;;;23.27;72.25;98779.47;2269789;78;21527;-69
2021/06/25 06:05:42;;;;;;;24.60;10.47;;;;;;;23.21;72.62;98786.88;2270010;78;21527;-70
2021/06/25 06:08:43;;;;;;;;;;;;;;;22.98;71.91;98778.27;2272419;78;20972;-68
2021/06/25 06:11:43;;;;;;;22.40;10.45;;;;;;;23.05;73.50;98783.76;2269831;78;20153;-70
2021/06/25 06:14:43;;;;;;;23.40;10.43;;;;;;;22.92;72.81;98783.80;2270272;78;21003;-68
2021/06/25 06:17:47;;;;;;;23.00;10.23;;;;;;;22.93;73.16;98780.61;2270227;78;20960;-69
2021/06/25 06:20:46;;;;;;;22.95;10.68;;;;;;;23.13;73.23;98784.58;2247166;78;21483;-69
2021/06/25 06:35:56;;;;;;;24.05;12.20;;;;;;;22.83;72.01;98785.68;2226414;80;21503;-69
2021/06/25 06:38:58;;;;;;;26.12;12.37;;;;;;;23.00;72.33;98792.28;2236539;79;20976;-69
2021/06/25 06:41:59;;;;;;;25.23;12.27;;;;;;;22.93;72.42;98798.84;2237131;79;20988;-68
2021/06/25 06:45:00;;;;;;;24.47;12.05;;;;;;;23.06;72.62;98799.63;2237020;79;20972;-70
2021/06/25 06:48:01;;;;;;;25.70;11.93;;;;;;;23.04;70.85;98805.64;2237166;79;21415;-69
2021/06/25 06:51:01;;;;;;;25.47;11.63;;;;;;;22.99;71.84;98800.82;2236992;79;20956;-68
2021/06/25 06:54:01;;;;;;;25.50;11.67;;;;;;;22.73;71.47;98798.42;2236966;79;21042;-68
2021/06/25 06:57:02;;;;;;;22.67;11.67;;;;;;;22.70;71.62;98802.78;2237179;79;20998;-70
2021/06/25 07:00:02;;;;;;;26.93;11.97;;;;;;;23.51;69.86;98807.93;2236996;79;21019;-70
2021/06/25 07:03:04;;;;;;;24.05;11.85;;;;;;;23.51;69.86;98807.93;2236545;79;21135;-70
2021/06/25 07:06:04;;;;;;;24.17;11.63;;;;;;;23.69;69.64;98807.62;2236933;79;20968;-70
2021/06/25 07:09:05;;;;;;;24.07;11.40;;;;;;;23.98;69.32;98806.12;2237385;79;20925;-69
2021/06/25 07:12:05;;;;;;;23.67;11.87;;;;;;;24.11;68.54;98801.48;2237243;79;20988;-70
2021/06/25 07:15:06;;;;;;;23.70;11.20;;;;;;;24.34;67.68;98800.09;2237030;79;20968;-68
2021/06/25 07:18:06;;;;;;;23.70;10.43;;;;;;;24.64;65.86;98804.13;2237147;79;21460;-69
2021/06/25 07:21:06;;;;;;;23.50;10.73;;;;;;;24.47;65.56;98800.80;2237123;79;21440;-69
2021/06/25 07:24:07;;;;;;;25.03;12.07;;;;;;;24.03;66.71;98799.69;2237060;79;20973;-69
2021/06/25 07:27:07;;;;;;;24.07;11.57;;;;;;;23.69;66.32;98802.27;2237033;79;21003;-69
2021/06/25 07:30:08;;;;;;;25.47;11.67;;;;;;;23.57;67.13;98799.70;2236982;79;21015;-67
2021/06/25 07:33:08;;;;;;;25.80;13.10;;;;;;;23.65;66.69;98800.47;2237090;79;21020;-70
2021/06/25 07:36:09;;;;;;;25.37;13.50;;;;;;;23.80;66.48;98797.83;2258229;78;20956;-69
2021/06/25 07:39:09;;;;;;;24.97;12.73;;;;;;;24.12;66.51;98797.77;2270207;78;20937;-68
2021/06/25 07:42:10;;;;;;;26.03;14.00;;;;;;;24.25;65.26;98802.50;2270105;78;21011;-67
2021/06/25 07:45:11;;;;;;;23.53;13.13;;;;;;;24.16;65.15;98798.56;2270280;78;20968;-66
2021/06/25 07:48:11;;;;;;;27.47;14.23;;;;;;;24.34;65.55;98802.25;2270259;78;21024;-65
2021/06/25 07:51:12;;;;;;;27.47;14.23;;;;;;;24.70;64.63;98790.01;2270012;78;21015;-65
2021/06/25 07:54:12;;;;;;;28.17;14.20;;;;;;;24.93;63.94;98786.39;2270160;78;21323;-68
2021/06/25 07:57:13;;;;;;;23.30;12.03;;;;;;;25.17;63.47;98787.89;2270291;78;20960;-64
2021/06/25 08:00:13;;;;;;;28.67;14.83;;;;;;;25.21;61.28;98786.50;2270506;78;20999;-64
2021/06/25 08:03:15;;;;;;;;;;;;;;;25.34;62.55;98796.09;2272233;78;21478;-67
2021/06/25 08:06:15;;;;;;;23.45;13.43;;;;;;;25.58;60.79;98774.73;2270105;78;20089;-64
2021/06/25 08:09:16;;;;;;;26.93;15.83;;;;;;;25.73;60.18;98783.23;2270284;78;20938;-65
2021/06/25 08:12:19;;;;;;;25.27;13.95;;;;;;;25.77;59.65;98787.20;2269758;78;21032;-67
2021/06/25 08:15:19;;;;;;;24.50;14.53;;;;;;;25.45;60.31;98785.34;2270407;78;20952;-64
2021/06/25 08:18:19;;;;;;;24.60;14.57;;;;;;;25.08;60.90;98783.14;2270281;78;21012;-65
2021/06/25 08:21:20;;;;;;;26.03;14.40;;;;;;;24.83;61.45;98786.67;2270384;78;20964;-65
2021/06/25 08:24:20;;;;;;;26.80;14.77;;;;;;;24.92;61.29;98786.05;2270204;78;20964;-64
2021/06/25 08:27:21;;;;;;;28.17;15.13;;;;;;;25.22;61.94;98784.96;2270205;78;21494;-65
2021/06/25 08:30:24;;;;;;;25.40;13.70;;;;;;;25.36;60.76;98780.61;2270237;78;21451;-64
2021/06/25 08:33:24;;;;;;;25.55;14.75;;;;;;;25.48;59.40;98780.11;2247440;78;21008;-64
2021/06/25 08:36:25;;;;;;;24.23;13.83;;;;;;;25.45;59.31;98796.61;2259453;78;21467;-65
2021/06/25 08:39:26;;;;;;;26.33;14.47;;;;;;;25.15;58.91;98788.08;2254148;78;20973;-63
2021/06/25 08:42:27;;;;;;;26.73;14.38;;;;;;;24.92;60.15;98784.20;2254007;79;20969;-64
2021/06/25 08:45:28;;;;;;;31.50;18.77;;;;;;;24.85;60.93;98779.25;2254095;78;21060;-69
2021/06/25 08:48:29;;;;;;;30.70;17.75;;;;;;;24.93;62.15;98776.48;2253715;78;21534;-66
2021/06/25 08:51:30;;;;;;;34.00;20.97;;;;;;;25.00;61.67;98776.57;2254084;78;20996;-66
2021/06/25 08:54:30;;;;;;;30.53;19.57;;;;;;;24.92;62.99;98786.05;2254241;78;20965;-65
2021/06/25 08:57:31;;;;;;;30.17;18.80;;;;;;;24.82;62.48;98791.19;2254002;78;21006;-64
2021/06/25 09:00:31;;;;;;;30.13;18.60;;;;;;;25.19;62.38;98789.37;2254365;78;21000;-65
2021/06/25 09:03:34;;;;;;;35.05;21.65;;;;;;;25.48;62.09;98780.11;2253483;79;21487;-65
2021/06/25 09:06:34;;;;;;;31.87;20.70;;;;;;;25.48;61.92;98784.96;2253766;78;20972;-66
2021/06/25 09:09:35;;;;;;;33.70;21.13;;;;;;;25.22;61.26;98794.88;2254063;79;21004;-65
2021/06/25 10:28:40;;;;;;;35.13;19.25;;;;;;;23.20;66.33;98795.39;2408481;74;22623;-67
2021/06/25 10:31:41;;;;;;;34.92;18.20;;;;;;;23.19;64.82;98809.80;2367361;75;21501;-67
2021/06/25 10:34:43;;;;;;;34.13;20.27;;;;;;;23.11;65.20;98812.50;2408377;74;20936;-67
2021/06/25 10:37:44;;;;;;;;;;;;;;;23.13;65.50;98812.66;2411070;74;20947;-67
2021/06/25 10:40:44;;;;;;;31.93;18.95;;;;;;;23.04;65.96;98820.34;2408122;74;20396;-68
2021/06/25 10:43:46;;;;;;;33.67;20.30;;;;;;;22.84;66.36;98811.42;2408086;74;20940;-68
2021/06/25 10:46:49;;;;;;;;;;;;;;;22.81;66.81;98813.11;2410919;74;20979;-66
2021/06/25 10:49:49;;;;;;;;;;;;;;;22.87;67.44;98811.59;2410653;74;20099;-68
2021/06/25 10:52:50;;;;;;;37.00;20.72;;;;;;;22.98;67.27;98827.73;2408100;74;20105;-67
2021/06/25 10:55:50;;;;;;;33.97;20.30;;;;;;;23.06;66.68;98830.88;2408320;74;20948;-68
2021/06/25 10:58:51;;;;;;;31.73;19.50;;;;;;;23.16;67.31;98827.54;2408480;74;21549;-68
2021/06/25 11:01:51;;;;;;;34.80;21.37;;;;;;;23.20;66.31;98836.03;2408424;74;21443;-67
2021/06/25 11:04:52;;;;;;;35.52;21.20;;;;;;;23.08;66.06;98835.56;2407960;74;20976;-68
2021/06/25 11:07:53;;;;;;;32.37;19.80;;;;;;;23.09;66.25;98834.56;2408368;74;21494;-68
2021/06/25 11:10:53;;;;;;;34.33;21.13;;;;;;;23.10;66.69;98834.39;2408258;74;21490;-67
2021/06/25 11:13:54;;;;;;;32.67;19.97;;;;;;;23.06;67.07;98839.75;2408714;74;21035;-68
2021/06/25 11:16:54;;;;;;;33.57;19.93;;;;;;;22.98;66.80;98842.45;2408372;74;20969;-69
2021/06/25 11:19:54;;;;;;;34.37;21.73;;;;;;;22.81;67.49;98850.55;2408700;74;20916;-68
2021/06/25 11:22:55;;;;;;;32.57;20.77;;;;;;;22.69;68.77;98859.09;2408339;74;20941;-69
2021/06/25 11:25:56;;;;;;;31.53;19.80;;;;;;;22.53;68.87;98850.09;2408283;74;20944;-67
2021/06/25 11:28:57;;;;;;;31.17;19.30;;;;;;;22.39;69.52;98850.28;2400523;74;21280;-68
2021/06/25 11:31:59;;;;;;;34.50;18.98;;;;;;;22.35;69.72;98851.61;2400475;74;20995;-69
2021/06/25 11:35:00;;;;;;;33.55;19.05;;;;;;;22.33;69.31;98851.47;2400526;74;21013;-67
2021/06/25 11:38:02;;;;;;;32.60;19.52;;;;;;;22.33;69.30;98866.99;2400217;74;21466;-65
2021/06/25 11:41:03;;;;;;;33.53;19.30;;;;;;;22.25;70.07;98868.30;2399845;74;20994;-68
2021/06/25 11:44:05;;;;;;;30.95;19.48;;;;;;;22.17;70.41;98866.47;2399714;74;20987;-68
2021/06/25 11:47:08;;;;;;;34.53;19.57;;;;;;;21.98;70.65;98868.98;2399222;74;20961;-65
2021/06/25 11:50:16;;;;;;;35.05;18.37;;;;;;;21.79;70.92;98872.77;2399545;74;21023;-68
2021/06/25 11:53:13;;;;;;;31.12;18.50;;;;;;;21.61;71.21;98872.92;2369194;74;21003;-68
2021/06/25 11:56:15;;;;;;;31.15;18.87;;;;;;;21.52;70.71;98886.74;2399779;74;21473;-68
2021/06/25 11:59:16;;;;;;;29.75;17.73;;;;;;;21.44;71.51;98892.02;2399818;74;20963;-67
2021/06/25 12:02:18;;;;;;;30.92;18.37;;;;;;;21.57;71.54;98875.06;2399766;74;20920;-68
2021/06/25 12:05:19;;;;;;;31.27;19.37;;;;;;;21.68;72.03;98886.42;2399736;74;20995;-63
2021/06/25 12:08:21;;;;;;;33.95;20.57;;;;;;;21.62;71.38;98882.58;2399819;74;21020;-69
2021/06/25 12:11:22;;;;;;;38.90;23.10;;;;;;;21.71;72.13;98880.27;2399748;74;20948;-69
2021/06/25 12:14:23;;;;;;;39.45;22.65;;;;;;;21.73;71.89;98892.12;2399925;74;21059;-69
2021/06/25 12:17:25;;;;;;;36.68;21.40;;;;;;;21.61;71.73;98897.77;2399603;74;20952;-67
2021/06/25 12:20:26;;;;;;;37.23;22.27;;;;;;;21.54;72.23;98903.92;2399822;74;21414;-66
2021/06/25 12:23:28;;;;;;;37.17;22.62;;;;;;;21.43;72.62;98895.67;2399681;74;20994;-67
2021/06/25 12:26:30;;;;;;;37.48;22.55;;;;;;;21.36;73.10;98899.98;2398893;74;21474;-68
2021/06/25 12:29:32;;;;;;;36.70;21.90;;;;;;;21.26;74.02;98900.10;2395536;74;20985;-66
2021/06/25 12:32:33;;;;;;;36.40;22.48;;;;;;;21.26;72.80;98910.30;2395244;74;21532;-67
2021/06/25 12:35:35;;;;;;;38.98;23.32;;;;;;;21.21;73.10;98925.10;2395303;74;20992;-65
2021/06/25 12:38:36;;;;;;;40.23;23.62;;;;;;;21.13;73.23;98919.72;2395250;74;21008;-68
2021/06/25 12:41:37;;;;;;;41.23;24.15;;;;;;;21.06;73.97;98915.52;2395165;74;20974;-63
2021/06/25 12:44:39;;;;;;;39.13;24.60;;;;;;;21.00;75.26;98924.98;2395206;74;21008;-68
2021/06/25 12:47:40;;;;;;;37.88;23.25;;;;;;;21.05;74.59;98919.19;2395024;74;21600;-67
2021/06/25 12:50:42;;;;;;;43.33;24.98;;;;;;;21.07;75.45;98918.02;2394832;74;21037;-67
2021/06/25 12:53:44;;;;;;;41.53;24.10;;;;;;;21.15;74.83;98913.24;2395170;74;20961;-66
2021/06/25 12:56:46;;;;;;;40.38;24.05;;;;;;;21.27;74.40;98909.78;2395142;74;21525;-65
2021/06/25 12:59:48;;;;;;;41.02;23.62;;;;;;;21.37;73.94;98908.33;2395227;74;20993;-63
2021/06/25 13:02:49;;;;;;;40.58;23.65;;;;;;;21.53;73.07;98898.23;2395024;74;21051;-67
2021/06/25 13:05:51;;;;;;;38.15;22.13;;;;;;;21.65;73.47;98891.62;2395128;74;20992;-68
2021/06/25 13:08:52;;;;;;;41.35;24.47;;;;;;;21.81;73.25;98885.47;2395114;74;21605;-67
2021/06/25 13:11:54;;;;;;;45.83;26.90;;;;;;;21.88;72.52;98882.95;2394840;74;21005;-67
2021/06/25 13:14:55;;;;;;;43.08;26.00;;;;;;;21.94;71.52;98885.81;2395055;74;21111;-67
2021/06/25 13:17:57;;;;;;;41.30;25.10;;;;;;;21.87;71.46;98908.01;2395152;74;21549;-69
2021/06/25 13:20:59;;;;;;;42.70;26.10;;;;;;;21.67;71.89;98911.47;2394756;74;21040;-68
2021/06/25 13:24:00;;;;;;;41.68;26.52;;;;;;;21.50;71.98;98911.37;2395201;74;21483;-68
2021/06/25 13:27:02;;;;;;;40.30;25.15;;;;;;;21.42;71.47;98911.33;2395017;74;21059;-68
2021/06/25 13:30:03;;;;;;;39.18;24.25;;;;;;;21.40;71.74;98924.84;2395130;74;21000;-63
2021/06/25 13:33:04;;;;;;;38.33;24.52;;;;;;;21.35;71.34;98911.64;2395120;74;21043;-67
2021/06/25 13:36:06;;;;;;;40.60;22.52;;;;;;;21.45;71.08;98919.04;2395096;74;20997;-65
2021/06/25 13:39:08;;;;;;;41.92;24.10;;;;;;;21.47;70.75;98929.04;2395142;74;21640;-64
2021/06/25 13:42:09;;;;;;;36.60;22.82;;;;;;;21.48;70.73;98917.86;2395052;74;21047;-65
2021/06/25 13:45:11;;;;;;;37.23;22.37;;;;;;;21.69;70.37;98904.12;2395088;74;20996;-67
2021/06/25 13:48:12;;;;;;;36.30;23.12;;;;;;;22.01;69.26;98905.17;2395204;74;21007;-68
2021/06/25 13:51:13;;;;;;;33.95;21.25;;;;;;;22.30;68.71;98902.86;2395147;74;21000;-68
2021/06/25 13:54:15;;;;;;;34.05;22.07;;;;;;;22.82;67.89;98896.81;2395100;74;21491;-68
2021/06/25 13:57:16;;;;;;;34.25;20.97;;;;;;;23.53;65.58;98902.25;2395246;74;21012;-68
2021/06/25 14:00:18;;;;;;;36.17;22.20;;;;;;;23.25;65.60;98904.06;2395121;74;21233;-68
2021/06/25 14:03:19;;;;;;;34.55;21.05;;;;;;;22.96;65.89;98917.50;2395094;74;21019;-68
2021/06/25 14:06:21;;;;;;;33.02;19.12;;;;;;;22.52;66.57;98921.91;2394929;74;21020;-66
2021/06/25 14:09:23;;;;;;;32.85;19.32;;;;;;;22.13;66.68;98929.23;2394648;74;21020;-67
2021/06/25 14:12:25;;;;;;;34.15;20.48;;;;;;;21.82;68.42;98935.68;2395261;74;20988;-64
2021/06/25 14:15:26;;;;;;;34.88;19.75;;;;;;;21.61;67.90;98939.13;2395056;74;21004;-68
2021/06/25 14:18:28;;;;;;;36.45;21.45;;;;;;;21.44;68.47;98937.38;2395129;74;21540;-68
2021/06/25 14:21:29;;;;;;;36.03;23.07;;;;;;;21.24;69.00;98944.78;2395114;74;21000;-68
2021/06/25 14:24:31;;;;;;;36.20;22.30;;;;;;;21.08;69.51;98946.36;2395113;74;21564;-66
2021/06/25 14:27:32;;;;;;;38.67;22.62;;;;;;;20.99;69.29;98949.13;2396490;74;20968;-68
2021/06/25 14:30:34;;;;;;;33.65;21.30;;;;;;;20.89;69.76;98936.77;2399452;74;20978;-67
2021/06/25 14:33:35;;;;;;;34.83;20.95;;;;;;;20.93;69.69;98927.94;2399643;74;20986;-65
2021/06/25 14:36:37;;;;;;;32.10;18.52;;;;;;;21.07;69.63;98926.52;2399320;74;20996;-68
2021/06/25 14:39:38;;;;;;;31.90;18.98;;;;;;;21.19;69.86;98923.08;2399484;74;21498;-68
2021/06/25 14:42:40;;;;;;;29.80;18.15;;;;;;;21.24;69.79;98922.94;2399453;74;20941;-64
2021/06/25 14:45:41;;;;;;;30.02;17.77;;;;;;;21.16;69.51;98913.59;2399419;74;20948;-67
2021/06/25 14:48:43;;;;;;;29.82;16.85;;;;;;;21.20;69.75;98914.91;2399609;74;20941;-65
2021/06/25 14:51:44;;;;;;;26.75;14.73;;;;;;;21.27;69.87;98920.45;2399492;74;20928;-66
2021/06/25 14:54:45;;;;;;;26.77;14.07;;;;;;;21.33;69.33;98921.65;2399443;74;21406;-68
2021/06/25 14:57:47;;;;;;;25.02;13.70;;;;;;;21.38;69.00;98918.84;2399502;74;20908;-67
2021/06/25 15:00:48;;;;;;;25.95;13.28;;;;;;;21.40;69.56;98923.50;2399409;74;20963;-64
2021/06/25 15:03:50;;;;;;;;;;;;;;;21.43;69.50;98921.02;2402312;74;20944;-67
2021/06/25 15:06:52;;;;;;;26.90;13.22;;;;;;;21.45;68.60;98925.20;2399575;74;20464;-68
2021/06/25 15:09:54;;;;;;;23.65;13.15;;;;;;;21.57;68.58;98930.28;2399165;74;21022;-68
2021/06/25 15:12:56;;;;;;;25.90;12.73;;;;;;;21.87;68.51;98928.86;2399474;74;20940;-63
2021/06/25 15:15:57;;;;;;;25.50;12.65;;;;;;;22.17;67.76;98929.23;2399620;74;20939;-66
2021/06/25 15:18:58;;;;;;;23.80;11.88;;;;;;;22.35;67.48;98927.76;2399606;74;21537;-65
2021/06/25 15:22:00;;;;;;;21.90;10.95;;;;;;;22.49;67.89;98930.27;2399603;74;20982;-63
2021/06/25 15:25:01;;;;;;;23.05;12.03;;;;;;;22.63;67.22;98928.25;2399617;74;20936;-66
2021/06/25 15:31:06;;;;;;;22.45;11.78;;;;;;;23.18;64.63;98915.12;2364875;74;20921;-63